Sugar Creek, Missouri
Current Conditions -  °F | °C
As of 3:54 AM on Saturday 20 Dec 2014 (Local Time) from KMKC Reporting Station
Overcast Overcast  
Wind Chill: 35°   Ceiling: 800
Heat Index: 35°   Visibility: 8mi
Dew Point: 32°   Wind: 3mph
Humidity: 89%   Direction: 240°WSW
Pressure: 30.2"   Gusts: NA
Location:  39.11°N, 94.4625°W
Report Text: KMKC 200954Z 24003KT 8SM OVC008 02/00 A3020 RMK AO2 SLP233 T00170000
Loading
Personal Weather Stations






























Interactive Weather Map New forecast layout! Learn more

10-Day Weather Forecast

Advertisements
Track Severe Weather on mobile